sensor_id;sensor_type;location;lat;lon;timestamp;temperature;humidity
26947;DHT22;14501;52.282;10.560;2022-10-16T00:00:44;13.40;99.90
26947;DHT22;14501;52.282;10.560;2022-10-16T00:03:11;13.30;99.90
26947;DHT22;14501;52.282;10.560;2022-10-16T00:05:43;13.40;99.90
26947;DHT22;14501;52.282;10.560;2022-10-16T00:08:11;13.30;99.90
26947;DHT22;14501;52.282;10.560;2022-10-16T00:10:37;13.40;99.90
26947;DHT22;14501;52.282;10.560;2022-10-16T00:13:03;13.30;99.90
26947;DHT22;14501;52.282;10.560;2022-10-16T00:15:30;13.30;99.90
26947;DHT22;14501;52.282;10.560;2022-10-16T00:17:55;13.30;99.90
26947;DHT22;14501;52.282;10.560;2022-10-16T00:20:21;13.20;99.90
26947;DHT22;14501;52.282;10.560;2022-10-16T00:22:47;13.30;99.90
26947;DHT22;14501;52.282;10.560;2022-10-16T00:25:12;13.30;99.90
26947;DHT22;14501;52.282;10.560;2022-10-16T00:27:38;13.20;99.90
26947;DHT22;14501;52.282;10.560;2022-10-16T00:30:04;13.30;99.90
26947;DHT22;14501;52.282;10.560;2022-10-16T00:32:30;13.30;99.90
26947;DHT22;14501;52.282;10.560;2022-10-16T00:34:55;13.30;99.90
26947;DHT22;14501;52.282;10.560;2022-10-16T00:37:21;13.30;99.90
26947;DHT22;14501;52.282;10.560;2022-10-16T00:39:47;13.30;99.90
26947;DHT22;14501;52.282;10.560;2022-10-16T00:42:17;13.30;99.90
26947;DHT22;14501;52.282;10.560;2022-10-16T00:44:50;13.20;99.90
26947;DHT22;14501;52.282;10.560;2022-10-16T00:47:44;13.20;99.90
26947;DHT22;14501;52.282;10.560;2022-10-16T00:50:29;13.20;99.90
26947;DHT22;14501;52.282;10.560;2022-10-16T00:52:56;13.10;99.90
26947;DHT22;14501;52.282;10.560;2022-10-16T00:55:22;13.10;99.90
26947;DHT22;14501;52.282;10.560;2022-10-16T00:57:49;13.00;99.90
26947;DHT22;14501;52.282;10.560;2022-10-16T01:00:24;13.00;99.90
26947;DHT22;14501;52.282;10.560;2022-10-16T01:02:54;13.10;99.90
26947;DHT22;14501;52.282;10.560;2022-10-16T01:05:22;13.10;99.90
26947;DHT22;14501;52.282;10.560;2022-10-16T01:08:13;13.10;99.90
26947;DHT22;14501;52.282;10.560;2022-10-16T01:10:52;13.10;99.90
26947;DHT22;14501;52.282;10.560;2022-10-16T01:13:27;13.10;99.90
26947;DHT22;14501;52.282;10.560;2022-10-16T01:16:11;13.20;99.90
26947;DHT22;14501;52.282;10.560;2022-10-16T01:32:42;13.30;99.90
26947;DHT22;14501;52.282;10.560;2022-10-16T01:35:25;13.40;99.90
26947;DHT22;14501;52.282;10.560;2022-10-16T01:38:19;13.40;99.90
26947;DHT22;14501;52.282;10.560;2022-10-16T01:40:51;13.40;99.90
26947;DHT22;14501;52.282;10.560;2022-10-16T01:43:22;13.40;99.90
26947;DHT22;14501;52.282;10.560;2022-10-16T01:45:50;13.40;99.90
26947;DHT22;14501;52.282;10.560;2022-10-16T01:48:18;13.40;99.90
26947;DHT22;14501;52.282;10.560;2022-10-16T01:50:54;13.40;99.90
26947;DHT22;14501;52.282;10.560;2022-10-16T01:53:20;13.40;99.90
26947;DHT22;14501;52.282;10.560;2022-10-16T01:55:48;13.40;99.90
26947;DHT22;14501;52.282;10.560;2022-10-16T01:58:15;13.30;99.90
26947;DHT22;14501;52.282;10.560;2022-10-16T02:00:44;13.30;99.90
26947;DHT22;14501;52.282;10.560;2022-10-16T02:03:12;13.30;99.90
26947;DHT22;14501;52.282;10.560;2022-10-16T02:05:51;13.30;99.90
26947;DHT22;14501;52.282;10.560;2022-10-16T02:08:18;13.20;99.90
26947;DHT22;14501;52.282;10.560;2022-10-16T02:10:44;13.20;99.90
26947;DHT22;14501;52.282;10.560;2022-10-16T02:13:15;13.20;99.90
26947;DHT22;14501;52.282;10.560;2022-10-16T02:15:42;13.20;99.90
26947;DHT22;14501;52.282;10.560;2022-10-16T02:18:09;13.20;99.90
26947;DHT22;14501;52.282;10.560;2022-10-16T02:20:45;13.20;99.90
26947;DHT22;14501;52.282;10.560;2022-10-16T02:23:19;13.20;99.90
26947;DHT22;14501;52.282;10.560;2022-10-16T02:25:50;13.30;99.90
26947;DHT22;14501;52.282;10.560;2022-10-16T02:31:08;13.30;99.90
26947;DHT22;14501;52.282;10.560;2022-10-16T02:33:36;13.30;99.90
26947;DHT22;14501;52.282;10.560;2022-10-16T02:36:03;13.40;99.90
26947;DHT22;14501;52.282;10.560;2022-10-16T02:38:30;13.40;99.90
26947;DHT22;14501;52.282;10.560;2022-10-16T02:40:56;13.50;99.90
26947;DHT22;14501;52.282;10.560;2022-10-16T02:43:22;13.50;99.90
26947;DHT22;14501;52.282;10.560;2022-10-16T02:45:48;13.60;99.90
26947;DHT22;14501;52.282;10.560;2022-10-16T02:48:13;13.60;99.90
26947;DHT22;14501;52.282;10.560;2022-10-16T02:50:40;13.60;99.90
26947;DHT22;14501;52.282;10.560;2022-10-16T02:53:05;13.60;99.90
26947;DHT22;14501;52.282;10.560;2022-10-16T02:55:31;13.60;99.90
26947;DHT22;14501;52.282;10.560;2022-10-16T02:57:57;13.60;99.90
26947;DHT22;14501;52.282;10.560;2022-10-16T03:00:22;13.60;99.90
26947;DHT22;14501;52.282;10.560;2022-10-16T03:02:48;13.60;99.90
26947;DHT22;14501;52.282;10.560;2022-10-16T03:05:14;13.50;99.90
26947;DHT22;14501;52.282;10.560;2022-10-16T03:07:40;13.50;99.90
26947;DHT22;14501;52.282;10.560;2022-10-16T03:10:06;13.50;99.90
26947;DHT22;14501;52.282;10.560;2022-10-16T03:12:32;13.50;99.90
26947;DHT22;14501;52.282;10.560;2022-10-16T03:14:58;13.50;99.90
26947;DHT22;14501;52.282;10.560;2022-10-16T03:17:24;13.50;99.90
26947;DHT22;14501;52.282;10.560;2022-10-16T03:19:50;13.50;99.90
26947;DHT22;14501;52.282;10.560;2022-10-16T03:22:15;13.40;99.90
26947;DHT22;14501;52.282;10.560;2022-10-16T03:24:41;13.50;99.90
26947;DHT22;14501;52.282;10.560;2022-10-16T03:27:08;13.40;99.90
26947;DHT22;14501;52.282;10.560;2022-10-16T03:29:34;13.40;99.90
26947;DHT22;14501;52.282;10.560;2022-10-16T03:32:00;13.30;99.90
26947;DHT22;14501;52.282;10.560;2022-10-16T03:34:25;13.30;99.90
26947;DHT22;14501;52.282;10.560;2022-10-16T03:36:52;13.30;99.90
26947;DHT22;14501;52.282;10.560;2022-10-16T03:39:18;13.20;99.90
26947;DHT22;14501;52.282;10.560;2022-10-16T03:41:43;13.20;99.90
26947;DHT22;14501;52.282;10.560;2022-10-16T03:44:09;13.10;99.90
26947;DHT22;14501;52.282;10.560;2022-10-16T03:46:35;13.10;99.90
26947;DHT22;14501;52.282;10.560;2022-10-16T03:49:00;13.00;99.90
26947;DHT22;14501;52.282;10.560;2022-10-16T03:51:26;13.00;99.90
26947;DHT22;14501;52.282;10.560;2022-10-16T03:53:51;12.90;99.90
26947;DHT22;14501;52.282;10.560;2022-10-16T03:56:17;12.90;99.90
26947;DHT22;14501;52.282;10.560;2022-10-16T03:58:43;12.80;99.90
26947;DHT22;14501;52.282;10.560;2022-10-16T04:01:08;12.70;99.90
26947;DHT22;14501;52.282;10.560;2022-10-16T04:03:34;12.60;99.90
26947;DHT22;14501;52.282;10.560;2022-10-16T04:05:59;12.50;99.90
26947;DHT22;14501;52.282;10.560;2022-10-16T04:08:25;12.40;99.90
26947;DHT22;14501;52.282;10.560;2022-10-16T04:10:51;12.40;99.90
26947;DHT22;14501;52.282;10.560;2022-10-16T04:13:16;12.30;99.90
26947;DHT22;14501;52.282;10.560;2022-10-16T04:15:44;12.20;99.90
26947;DHT22;14501;52.282;10.560;2022-10-16T04:18:11;12.20;99.90
26947;DHT22;14501;52.282;10.560;2022-10-16T04:20:37;12.10;99.90
26947;DHT22;14501;52.282;10.560;2022-10-16T04:23:03;12.10;99.90
26947;DHT22;14501;52.282;10.560;2022-10-16T04:25:29;12.00;99.90
26947;DHT22;14501;52.282;10.560;2022-10-16T04:27:55;11.90;99.90
26947;DHT22;14501;52.282;10.560;2022-10-16T04:30:21;11.90;99.90
26947;DHT22;14501;52.282;10.560;2022-10-16T04:32:51;11.90;99.90
26947;DHT22;14501;52.282;10.560;2022-10-16T04:35:17;11.90;99.90
26947;DHT22;14501;52.282;10.560;2022-10-16T04:37:43;11.90;99.90
26947;DHT22;14501;52.282;10.560;2022-10-16T04:40:09;11.90;99.90
26947;DHT22;14501;52.282;10.560;2022-10-16T04:42:35;11.90;99.90
26947;DHT22;14501;52.282;10.560;2022-10-16T04:45:00;11.90;99.90
26947;DHT22;14501;52.282;10.560;2022-10-16T04:47:26;11.90;99.90
26947;DHT22;14501;52.282;10.560;2022-10-16T04:49:52;12.00;99.90
26947;DHT22;14501;52.282;10.560;2022-10-16T04:52:17;12.10;99.90
26947;DHT22;14501;52.282;10.560;2022-10-16T04:54:44;12.20;99.90
26947;DHT22;14501;52.282;10.560;2022-10-16T04:57:11;12.20;99.90
26947;DHT22;14501;52.282;10.560;2022-10-16T04:59:36;12.30;99.90
26947;DHT22;14501;52.282;10.560;2022-10-16T05:02:02;12.40;99.90
26947;DHT22;14501;52.282;10.560;2022-10-16T05:04:28;12.40;99.90
26947;DHT22;14501;52.282;10.560;2022-10-16T05:06:54;12.50;99.90
26947;DHT22;14501;52.282;10.560;2022-10-16T05:09:19;12.50;99.90
26947;DHT22;14501;52.282;10.560;2022-10-16T05:11:45;12.60;99.90
26947;DHT22;14501;52.282;10.560;2022-10-16T05:14:11;12.60;99.90
26947;DHT22;14501;52.282;10.560;2022-10-16T05:16:36;12.60;99.90
26947;DHT22;14501;52.282;10.560;2022-10-16T05:19:02;12.70;99.90
26947;DHT22;14501;52.282;10.560;2022-10-16T05:21:28;12.70;99.90
26947;DHT22;14501;52.282;10.560;2022-10-16T05:23:53;12.70;99.90
26947;DHT22;14501;52.282;10.560;2022-10-16T05:26:20;12.80;99.90
26947;DHT22;14501;52.282;10.560;2022-10-16T05:28:46;12.80;99.90
26947;DHT22;14501;52.282;10.560;2022-10-16T05:31:11;12.80;99.90
26947;DHT22;14501;52.282;10.560;2022-10-16T05:33:37;12.90;99.90
26947;DHT22;14501;52.282;10.560;2022-10-16T05:36:05;12.90;99.90
26947;DHT22;14501;52.282;10.560;2022-10-16T05:38:31;12.90;99.90
26947;DHT22;14501;52.282;10.560;2022-10-16T05:40:57;12.90;99.90
26947;DHT22;14501;52.282;10.560;2022-10-16T05:43:22;12.90;99.90
26947;DHT22;14501;52.282;10.560;2022-10-16T05:46:05;12.90;99.90
26947;DHT22;14501;52.282;10.560;2022-10-16T05:48:31;12.90;99.90
26947;DHT22;14501;52.282;10.560;2022-10-16T05:51:02;12.90;99.90
26947;DHT22;14501;52.282;10.560;2022-10-16T05:53:29;12.90;99.90
26947;DHT22;14501;52.282;10.560;2022-10-16T05:55:55;12.90;99.90
26947;DHT22;14501;52.282;10.560;2022-10-16T05:58:22;12.90;99.90
26947;DHT22;14501;52.282;10.560;2022-10-16T06:01:00;12.90;99.90
26947;DHT22;14501;52.282;10.560;2022-10-16T06:03:26;12.90;99.90
26947;DHT22;14501;52.282;10.560;2022-10-16T06:05:52;12.90;99.90
26947;DHT22;14501;52.282;10.560;2022-10-16T06:08:19;12.80;99.90
26947;DHT22;14501;52.282;10.560;2022-10-16T06:10:45;12.90;99.90
26947;DHT22;14501;52.282;10.560;2022-10-16T06:13:12;12.90;99.90
26947;DHT22;14501;52.282;10.560;2022-10-16T06:15:39;13.10;99.90
26947;DHT22;14501;52.282;10.560;2022-10-16T06:18:07;13.00;99.90
26947;DHT22;14501;52.282;10.560;2022-10-16T06:20:33;13.10;99.90
26947;DHT22;14501;52.282;10.560;2022-10-16T06:22:58;13.10;99.90
26947;DHT22;14501;52.282;10.560;2022-10-16T06:25:24;13.10;99.90
26947;DHT22;14501;52.282;10.560;2022-10-16T06:27:49;13.10;99.90
26947;DHT22;14501;52.282;10.560;2022-10-16T06:30:15;13.20;99.90
26947;DHT22;14501;52.282;10.560;2022-10-16T06:32:41;13.20;99.90
26947;DHT22;14501;52.282;10.560;2022-10-16T06:35:06;13.30;99.90
26947;DHT22;14501;52.282;10.560;2022-10-16T06:37:32;13.40;99.90
26947;DHT22;14501;52.282;10.560;2022-10-16T06:39:58;13.50;99.90
26947;DHT22;14501;52.282;10.560;2022-10-16T06:42:23;13.50;99.90
26947;DHT22;14501;52.282;10.560;2022-10-16T06:44:49;13.60;99.90
26947;DHT22;14501;52.282;10.560;2022-10-16T06:47:14;13.70;99.90
26947;DHT22;14501;52.282;10.560;2022-10-16T06:49:40;13.70;99.90
26947;DHT22;14501;52.282;10.560;2022-10-16T06:52:06;13.90;99.90
26947;DHT22;14501;52.282;10.560;2022-10-16T06:54:31;14.10;99.90
26947;DHT22;14501;52.282;10.560;2022-10-16T06:56:57;14.40;99.90
26947;DHT22;14501;52.282;10.560;2022-10-16T06:59:25;14.50;99.90
26947;DHT22;14501;52.282;10.560;2022-10-16T07:01:50;14.70;99.90
26947;DHT22;14501;52.282;10.560;2022-10-16T07:04:16;14.80;99.90
26947;DHT22;14501;52.282;10.560;2022-10-16T07:06:42;14.80;99.90
26947;DHT22;14501;52.282;10.560;2022-10-16T07:09:10;14.80;99.90
26947;DHT22;14501;52.282;10.560;2022-10-16T07:11:37;14.90;99.90
26947;DHT22;14501;52.282;10.560;2022-10-16T07:14:04;14.90;99.90
26947;DHT22;14501;52.282;10.560;2022-10-16T07:16:32;15.20;99.90
26947;DHT22;14501;52.282;10.560;2022-10-16T07:19:00;15.20;99.90
26947;DHT22;14501;52.282;10.560;2022-10-16T07:21:28;15.30;99.90
26947;DHT22;14501;52.282;10.560;2022-10-16T07:23:57;15.50;99.90
26947;DHT22;14501;52.282;10.560;2022-10-16T07:26:24;15.60;99.90
26947;DHT22;14501;52.282;10.560;2022-10-16T07:28:50;15.70;99.90
26947;DHT22;14501;52.282;10.560;2022-10-16T07:31:17;15.80;99.90
26947;DHT22;14501;52.282;10.560;2022-10-16T07:33:44;15.80;99.90
26947;DHT22;14501;52.282;10.560;2022-10-16T07:36:11;15.70;99.90
26947;DHT22;14501;52.282;10.560;2022-10-16T07:38:37;15.70;99.90
26947;DHT22;14501;52.282;10.560;2022-10-16T07:41:06;15.70;99.90
26947;DHT22;14501;52.282;10.560;2022-10-16T07:43:32;15.80;99.90
26947;DHT22;14501;52.282;10.560;2022-10-16T07:45:58;16.20;99.90
26947;DHT22;14501;52.282;10.560;2022-10-16T07:48:27;16.20;99.90
26947;DHT22;14501;52.282;10.560;2022-10-16T07:50:57;16.50;99.90
26947;DHT22;14501;52.282;10.560;2022-10-16T07:53:23;16.60;99.90
26947;DHT22;14501;52.282;10.560;2022-10-16T07:55:49;16.80;99.90
26947;DHT22;14501;52.282;10.560;2022-10-16T07:58:14;16.80;99.90
26947;DHT22;14501;52.282;10.560;2022-10-16T08:00:40;16.90;99.90
26947;DHT22;14501;52.282;10.560;2022-10-16T08:03:06;16.90;99.90
26947;DHT22;14501;52.282;10.560;2022-10-16T08:05:32;16.90;99.90
26947;DHT22;14501;52.282;10.560;2022-10-16T08:07:59;16.80;99.90
26947;DHT22;14501;52.282;10.560;2022-10-16T08:10:25;16.90;99.90
26947;DHT22;14501;52.282;10.560;2022-10-16T08:12:52;17.20;99.90
26947;DHT22;14501;52.282;10.560;2022-10-16T08:15:18;17.60;99.90
26947;DHT22;14501;52.282;10.560;2022-10-16T08:17:44;18.00;99.90
26947;DHT22;14501;52.282;10.560;2022-10-16T08:20:11;19.00;99.90
26947;DHT22;14501;52.282;10.560;2022-10-16T08:22:36;20.60;99.90
26947;DHT22;14501;52.282;10.560;2022-10-16T08:25:02;22.10;99.90
26947;DHT22;14501;52.282;10.560;2022-10-16T08:27:32;24.10;99.90
26947;DHT22;14501;52.282;10.560;2022-10-16T08:29:58;25.00;99.90
26947;DHT22;14501;52.282;10.560;2022-10-16T08:32:23;26.90;99.90
26947;DHT22;14501;52.282;10.560;2022-10-16T08:34:49;27.10;99.90
26947;DHT22;14501;52.282;10.560;2022-10-16T08:37:15;27.60;99.90
26947;DHT22;14501;52.282;10.560;2022-10-16T08:39:40;27.60;99.90
26947;DHT22;14501;52.282;10.560;2022-10-16T08:50:20;28.30;99.90
26947;DHT22;14501;52.282;10.560;2022-10-16T08:52:47;27.50;99.90
26947;DHT22;14501;52.282;10.560;2022-10-16T08:55:41;26.10;99.90
26947;DHT22;14501;52.282;10.560;2022-10-16T08:58:12;25.10;99.90
26947;DHT22;14501;52.282;10.560;2022-10-16T09:00:39;24.60;99.90
26947;DHT22;14501;52.282;10.560;2022-10-16T09:08:18;22.20;99.90
26947;DHT22;14501;52.282;10.560;2022-10-16T09:10:57;22.10;99.90
26947;DHT22;14501;52.282;10.560;2022-10-16T09:16:33;27.70;99.90
26947;DHT22;14501;52.282;10.560;2022-10-16T09:19:22;27.40;99.90
26947;DHT22;14501;52.282;10.560;2022-10-16T09:21:48;28.40;99.90
26947;DHT22;14501;52.282;10.560;2022-10-16T09:24:16;28.70;99.90
26947;DHT22;14501;52.282;10.560;2022-10-16T09:26:43;30.00;99.90
26947;DHT22;14501;52.282;10.560;2022-10-16T09:29:13;30.00;99.90
26947;DHT22;14501;52.282;10.560;2022-10-16T09:31:39;30.60;99.50
26947;DHT22;14501;52.282;10.560;2022-10-16T09:34:08;31.60;98.80
26947;DHT22;14501;52.282;10.560;2022-10-16T09:36:43;29.60;98.40
26947;DHT22;14501;52.282;10.560;2022-10-16T09:39:10;28.40;99.60
26947;DHT22;14501;52.282;10.560;2022-10-16T09:41:44;26.70;99.90
26947;DHT22;14501;52.282;10.560;2022-10-16T09:44:23;26.40;99.90
26947;DHT22;14501;52.282;10.560;2022-10-16T09:47:04;27.00;99.90
26947;DHT22;14501;52.282;10.560;2022-10-16T09:49:31;26.90;99.90
26947;DHT22;14501;52.282;10.560;2022-10-16T09:52:12;26.60;99.90
26947;DHT22;14501;52.282;10.560;2022-10-16T09:54:52;26.50;99.90
26947;DHT22;14501;52.282;10.560;2022-10-16T09:57:18;25.40;99.90
26947;DHT22;14501;52.282;10.560;2022-10-16T10:02:15;23.90;99.90
26947;DHT22;14501;52.282;10.560;2022-10-16T10:04:50;23.30;99.90
26947;DHT22;14501;52.282;10.560;2022-10-16T10:07:28;22.40;99.90
26947;DHT22;14501;52.282;10.560;2022-10-16T10:09:57;22.30;99.90
26947;DHT22;14501;52.282;10.560;2022-10-16T10:12:31;22.30;99.90
26947;DHT22;14501;52.282;10.560;2022-10-16T10:15:03;22.30;99.90
26947;DHT22;14501;52.282;10.560;2022-10-16T10:17:30;22.50;99.90
26947;DHT22;14501;52.282;10.560;2022-10-16T10:19:58;22.60;99.90
26947;DHT22;14501;52.282;10.560;2022-10-16T10:22:39;23.10;99.90
26947;DHT22;14501;52.282;10.560;2022-10-16T10:25:38;23.20;99.90
26947;DHT22;14501;52.282;10.560;2022-10-16T10:28:17;23.60;99.90
26947;DHT22;14501;52.282;10.560;2022-10-16T10:30:56;23.90;99.90
26947;DHT22;14501;52.282;10.560;2022-10-16T10:36:20;24.00;99.90
26947;DHT22;14501;52.282;10.560;2022-10-16T10:39:00;24.00;99.90
26947;DHT22;14501;52.282;10.560;2022-10-16T10:46:57;24.40;99.90
26947;DHT22;14501;52.282;10.560;2022-10-16T10:52:36;24.50;99.90
26947;DHT22;14501;52.282;10.560;2022-10-16T11:03:08;23.40;99.90
26947;DHT22;14501;52.282;10.560;2022-10-16T11:05:59;22.80;99.90
26947;DHT22;14501;52.282;10.560;2022-10-16T11:08:36;22.80;99.90
26947;DHT22;14501;52.282;10.560;2022-10-16T11:13:45;22.70;99.90
26947;DHT22;14501;52.282;10.560;2022-10-16T11:16:23;22.60;99.90
26947;DHT22;14501;52.282;10.560;2022-10-16T11:19:28;22.60;99.90
26947;DHT22;14501;52.282;10.560;2022-10-16T11:22:07;22.10;99.90
26947;DHT22;14501;52.282;10.560;2022-10-16T11:27:17;20.70;99.90
26947;DHT22;14501;52.282;10.560;2022-10-16T11:30:02;20.50;99.90
26947;DHT22;14501;52.282;10.560;2022-10-16T11:32:33;20.30;99.90
26947;DHT22;14501;52.282;10.560;2022-10-16T11:35:21;20.10;99.90
26947;DHT22;14501;52.282;10.560;2022-10-16T11:37:50;19.70;99.90
26947;DHT22;14501;52.282;10.560;2022-10-16T11:40:30;19.40;99.90
26947;DHT22;14501;52.282;10.560;2022-10-16T11:43:06;19.30;99.90
26947;DHT22;14501;52.282;10.560;2022-10-16T11:45:43;19.40;99.90
26947;DHT22;14501;52.282;10.560;2022-10-16T11:48:42;19.40;99.90
26947;DHT22;14501;52.282;10.560;2022-10-16T11:54:13;19.10;99.90
26947;DHT22;14501;52.282;10.560;2022-10-16T11:56:43;19.00;99.90
26947;DHT22;14501;52.282;10.560;2022-10-16T11:59:32;18.90;99.90
26947;DHT22;14501;52.282;10.560;2022-10-16T12:07:40;18.70;99.90
26947;DHT22;14501;52.282;10.560;2022-10-16T12:10:27;18.60;99.90
26947;DHT22;14501;52.282;10.560;2022-10-16T12:12:54;18.40;99.90
26947;DHT22;14501;52.282;10.560;2022-10-16T12:15:28;18.40;99.90
26947;DHT22;14501;52.282;10.560;2022-10-16T12:17:55;18.20;99.90
26947;DHT22;14501;52.282;10.560;2022-10-16T12:20:32;18.20;99.90
26947;DHT22;14501;52.282;10.560;2022-10-16T12:23:03;18.00;99.90
26947;DHT22;14501;52.282;10.560;2022-10-16T12:25:35;17.90;99.90
26947;DHT22;14501;52.282;10.560;2022-10-16T12:30:42;17.90;99.90
26947;DHT22;14501;52.282;10.560;2022-10-16T12:33:26;18.00;99.90
26947;DHT22;14501;52.282;10.560;2022-10-16T12:35:52;18.80;99.90
26947;DHT22;14501;52.282;10.560;2022-10-16T12:38:27;18.80;99.90
26947;DHT22;14501;52.282;10.560;2022-10-16T12:41:07;19.30;99.90
26947;DHT22;14501;52.282;10.560;2022-10-16T12:43:48;19.80;99.90
26947;DHT22;14501;52.282;10.560;2022-10-16T12:48:42;20.20;99.90
26947;DHT22;14501;52.282;10.560;2022-10-16T13:08:03;20.90;99.90
26947;DHT22;14501;52.282;10.560;2022-10-16T13:16:50;19.80;99.90
26947;DHT22;14501;52.282;10.560;2022-10-16T13:22:03;19.70;99.90
26947;DHT22;14501;52.282;10.560;2022-10-16T13:24:48;19.70;99.90
26947;DHT22;14501;52.282;10.560;2022-10-16T13:27:28;19.50;99.90
26947;DHT22;14501;52.282;10.560;2022-10-16T13:30:12;19.50;99.90
26947;DHT22;14501;52.282;10.560;2022-10-16T13:32:39;19.40;99.90
26947;DHT22;14501;52.282;10.560;2022-10-16T13:35:22;19.40;99.90
26947;DHT22;14501;52.282;10.560;2022-10-16T13:37:48;19.40;99.90
26947;DHT22;14501;52.282;10.560;2022-10-16T13:40:22;19.50;99.90
26947;DHT22;14501;52.282;10.560;2022-10-16T13:42:53;19.50;99.90
26947;DHT22;14501;52.282;10.560;2022-10-16T13:45:20;19.60;99.90
26947;DHT22;14501;52.282;10.560;2022-10-16T13:47:46;19.60;99.90
26947;DHT22;14501;52.282;10.560;2022-10-16T13:50:15;19.60;99.90
26947;DHT22;14501;52.282;10.560;2022-10-16T13:52:41;19.60;99.90
26947;DHT22;14501;52.282;10.560;2022-10-16T13:55:11;19.60;99.90
26947;DHT22;14501;52.282;10.560;2022-10-16T13:57:37;19.50;99.90
26947;DHT22;14501;52.282;10.560;2022-10-16T14:02:57;19.40;99.90
26947;DHT22;14501;52.282;10.560;2022-10-16T14:05:23;19.40;99.90
26947;DHT22;14501;52.282;10.560;2022-10-16T14:07:51;19.30;99.90
26947;DHT22;14501;52.282;10.560;2022-10-16T14:10:30;19.30;99.90
26947;DHT22;14501;52.282;10.560;2022-10-16T14:13:02;19.30;99.90
26947;DHT22;14501;52.282;10.560;2022-10-16T14:15:33;19.30;99.90
26947;DHT22;14501;52.282;10.560;2022-10-16T14:17:59;19.30;99.90
26947;DHT22;14501;52.282;10.560;2022-10-16T14:20:29;19.30;99.90
26947;DHT22;14501;52.282;10.560;2022-10-16T14:25:47;19.10;99.90
26947;DHT22;14501;52.282;10.560;2022-10-16T14:30:52;19.10;99.90
26947;DHT22;14501;52.282;10.560;2022-10-16T14:33:24;19.00;99.90
26947;DHT22;14501;52.282;10.560;2022-10-16T14:36:17;18.90;99.90
26947;DHT22;14501;52.282;10.560;2022-10-16T14:39:05;18.80;99.90
26947;DHT22;14501;52.282;10.560;2022-10-16T14:41:40;18.80;99.90
26947;DHT22;14501;52.282;10.560;2022-10-16T14:44:10;18.80;99.90
26947;DHT22;14501;52.282;10.560;2022-10-16T14:46:38;18.60;99.90
26947;DHT22;14501;52.282;10.560;2022-10-16T14:51:40;18.50;99.90
26947;DHT22;14501;52.282;10.560;2022-10-16T14:54:08;18.40;99.90
26947;DHT22;14501;52.282;10.560;2022-10-16T14:57:03;18.20;99.90
26947;DHT22;14501;52.282;10.560;2022-10-16T14:59:33;18.20;99.90
26947;DHT22;14501;52.282;10.560;2022-10-16T15:02:09;18.10;99.90
26947;DHT22;14501;52.282;10.560;2022-10-16T15:04:41;18.00;99.90
26947;DHT22;14501;52.282;10.560;2022-10-16T15:07:08;17.90;99.90
26947;DHT22;14501;52.282;10.560;2022-10-16T15:09:33;17.90;99.90
26947;DHT22;14501;52.282;10.560;2022-10-16T15:11:59;17.80;99.90
26947;DHT22;14501;52.282;10.560;2022-10-16T15:14:25;17.70;99.90
26947;DHT22;14501;52.282;10.560;2022-10-16T15:16:50;17.50;99.90
26947;DHT22;14501;52.282;10.560;2022-10-16T15:19:16;17.50;99.90
26947;DHT22;14501;52.282;10.560;2022-10-16T15:21:41;17.50;99.90
26947;DHT22;14501;52.282;10.560;2022-10-16T15:24:11;17.40;99.90
26947;DHT22;14501;52.282;10.560;2022-10-16T15:26:37;17.30;99.90
26947;DHT22;14501;52.282;10.560;2022-10-16T15:29:03;17.30;99.90
26947;DHT22;14501;52.282;10.560;2022-10-16T15:31:28;17.20;99.90
26947;DHT22;14501;52.282;10.560;2022-10-16T15:33:54;17.20;99.90
26947;DHT22;14501;52.282;10.560;2022-10-16T15:36:27;17.00;99.90
26947;DHT22;14501;52.282;10.560;2022-10-16T15:38:53;17.00;99.90
26947;DHT22;14501;52.282;10.560;2022-10-16T15:41:20;17.00;99.90
26947;DHT22;14501;52.282;10.560;2022-10-16T15:43:48;16.90;99.90
26947;DHT22;14501;52.282;10.560;2022-10-16T15:46:15;16.80;99.90
26947;DHT22;14501;52.282;10.560;2022-10-16T15:48:42;16.80;99.90
26947;DHT22;14501;52.282;10.560;2022-10-16T15:51:08;16.70;99.90
26947;DHT22;14501;52.282;10.560;2022-10-16T15:53:34;16.60;99.90
26947;DHT22;14501;52.282;10.560;2022-10-16T15:56:08;16.40;99.90
26947;DHT22;14501;52.282;10.560;2022-10-16T15:58:34;16.40;99.90
26947;DHT22;14501;52.282;10.560;2022-10-16T16:01:00;16.20;99.90
26947;DHT22;14501;52.282;10.560;2022-10-16T16:03:27;16.10;99.90
26947;DHT22;14501;52.282;10.560;2022-10-16T16:05:54;15.80;99.90
26947;DHT22;14501;52.282;10.560;2022-10-16T16:08:20;15.80;99.90
26947;DHT22;14501;52.282;10.560;2022-10-16T16:10:56;15.60;99.90
26947;DHT22;14501;52.282;10.560;2022-10-16T16:13:22;15.50;99.90
26947;DHT22;14501;52.282;10.560;2022-10-16T16:15:47;15.20;99.90
26947;DHT22;14501;52.282;10.560;2022-10-16T16:18:13;15.20;99.90
26947;DHT22;14501;52.282;10.560;2022-10-16T16:20:38;15.00;99.90
26947;DHT22;14501;52.282;10.560;2022-10-16T16:23:04;14.90;99.90
26947;DHT22;14501;52.282;10.560;2022-10-16T16:25:29;14.80;99.90
26947;DHT22;14501;52.282;10.560;2022-10-16T16:27:56;14.60;99.90
26947;DHT22;14501;52.282;10.560;2022-10-16T16:30:21;14.50;99.90
26947;DHT22;14501;52.282;10.560;2022-10-16T16:32:47;14.40;99.90
26947;DHT22;14501;52.282;10.560;2022-10-16T16:35:12;14.30;99.90
26947;DHT22;14501;52.282;10.560;2022-10-16T16:37:38;14.20;99.90
26947;DHT22;14501;52.282;10.560;2022-10-16T16:40:04;14.00;99.90
26947;DHT22;14501;52.282;10.560;2022-10-16T16:42:30;13.90;99.90
26947;DHT22;14501;52.282;10.560;2022-10-16T16:44:56;13.80;99.90
26947;DHT22;14501;52.282;10.560;2022-10-16T16:47:22;13.70;99.90
26947;DHT22;14501;52.282;10.560;2022-10-16T16:49:47;13.60;99.90
26947;DHT22;14501;52.282;10.560;2022-10-16T16:52:14;13.50;99.90
26947;DHT22;14501;52.282;10.560;2022-10-16T16:54:40;13.40;99.90
26947;DHT22;14501;52.282;10.560;2022-10-16T16:57:05;13.30;99.90
26947;DHT22;14501;52.282;10.560;2022-10-16T16:59:31;13.20;99.90
26947;DHT22;14501;52.282;10.560;2022-10-16T17:02:00;13.20;99.90
26947;DHT22;14501;52.282;10.560;2022-10-16T17:04:26;13.10;99.90
26947;DHT22;14501;52.282;10.560;2022-10-16T17:06:55;12.90;99.90
26947;DHT22;14501;52.282;10.560;2022-10-16T17:09:21;12.90;99.90
26947;DHT22;14501;52.282;10.560;2022-10-16T17:11:46;12.80;99.90
26947;DHT22;14501;52.282;10.560;2022-10-16T17:14:14;12.80;99.90
26947;DHT22;14501;52.282;10.560;2022-10-16T17:16:40;12.70;99.90
26947;DHT22;14501;52.282;10.560;2022-10-16T17:19:13;12.60;99.90